createdAt,value
2018-02-18T00:01:59.994Z,84.82
2018-02-18T00:04:28.021Z,83.98
2018-02-18T00:06:57.245Z,84.09
2018-02-18T00:09:26.457Z,84.19
2018-02-18T00:11:55.592Z,84.08
2018-02-18T00:14:34.802Z,84.36
2018-02-18T00:17:04.215Z,83.86
2018-02-18T00:19:34.537Z,83.52
2018-02-18T00:22:03.006Z,83.01
2018-02-18T00:24:31.738Z,83.36
2018-02-18T00:27:01.039Z,83.08
2018-02-18T00:29:29.966Z,83.26
2018-02-18T00:31:59.013Z,84.20
2018-02-18T00:34:26.743Z,84.11
2018-02-18T00:36:56.425Z,83.81
2018-02-18T00:39:24.548Z,83.78
2018-02-18T00:41:52.954Z,84.43
2018-02-18T00:44:22.538Z,84.40
2018-02-18T00:46:51.241Z,86.19
2018-02-18T00:49:20.983Z,86.72
2018-02-18T00:51:49.059Z,85.53
2018-02-18T00:54:17.342Z,84.49
2018-02-18T00:56:45.041Z,83.56
2018-02-18T00:59:13.144Z,83.58
2018-02-18T01:01:40.697Z,83.79
2018-02-18T01:04:09.248Z,84.19
2018-02-18T01:06:36.800Z,84.88
2018-02-18T01:09:05.206Z,85.27
2018-02-18T01:11:32.784Z,86.07
2018-02-18T01:14:00.332Z,84.80
2018-02-18T01:16:27.908Z,84.33
2018-02-18T01:18:55.462Z,84.21
2018-02-18T01:21:23.025Z,84.18
2018-02-18T01:23:51.807Z,84.00
2018-02-18T01:26:19.677Z,83.79
2018-02-18T01:28:47.327Z,83.48
2018-02-18T01:31:14.899Z,83.73
2018-02-18T01:33:42.445Z,83.07
2018-02-18T01:36:10.005Z,83.29
2018-02-18T01:38:37.583Z,83.20
2018-02-18T01:41:05.103Z,82.79
2018-02-18T01:43:32.685Z,82.82
2018-02-18T01:46:00.215Z,83.15
2018-02-18T01:48:27.788Z,82.83
2018-02-18T01:50:55.320Z,83.08
2018-02-18T01:53:22.892Z,83.18
2018-02-18T01:55:50.446Z,82.99
2018-02-18T01:58:18.027Z,82.66
2018-02-18T02:00:45.600Z,82.30
2018-02-18T02:03:13.223Z,82.63
2018-02-18T02:05:40.784Z,83.12
2018-02-18T02:08:08.331Z,83.36
2018-02-18T02:10:35.910Z,83.28
2018-02-18T02:13:03.438Z,82.99
2018-02-18T02:15:31.064Z,82.96
2018-02-18T02:17:58.615Z,82.79
2018-02-18T02:20:26.195Z,82.62
2018-02-18T02:22:53.720Z,83.01
2018-02-18T02:25:21.269Z,83.24
2018-02-18T02:27:48.852Z,83.45
2018-02-18T02:30:16.422Z,83.34
2018-02-18T02:32:44.007Z,83.73
2018-02-18T02:35:11.535Z,84.19
2018-02-18T02:37:39.106Z,83.55
2018-02-18T02:40:06.637Z,83.18
2018-02-18T02:42:34.208Z,83.16
2018-02-18T02:45:01.755Z,83.14
2018-02-18T02:47:30.112Z,83.43
2018-02-18T02:49:57.672Z,83.40
2018-02-18T02:52:25.197Z,83.08
2018-02-18T02:54:52.775Z,83.48
2018-02-18T02:57:20.301Z,82.98
2018-02-18T02:59:47.860Z,82.92
2018-02-18T03:02:15.410Z,83.21
2018-02-18T03:04:42.961Z,82.54
2018-02-18T03:07:10.518Z,83.07
2018-02-18T03:09:38.181Z,83.11
2018-02-18T03:12:05.743Z,82.95
2018-02-18T03:14:33.311Z,82.95
2018-02-18T03:17:00.977Z,83.53
2018-02-18T03:19:28.627Z,83.44
2018-02-18T03:21:56.206Z,83.17
2018-02-18T03:24:23.728Z,83.08
2018-02-18T03:26:51.279Z,83.17
2018-02-18T03:29:18.811Z,83.19
2018-02-18T03:31:46.436Z,83.49
2018-02-18T03:34:13.958Z,83.28
2018-02-18T03:36:41.487Z,83.89
2018-02-18T03:39:09.098Z,84.25
2018-02-18T03:41:36.640Z,84.02
2018-02-18T03:44:04.217Z,83.61
2018-02-18T03:46:31.878Z,83.29
2018-02-18T03:48:59.452Z,83.36
2018-02-18T03:51:27.102Z,83.33
2018-02-18T03:53:54.761Z,83.69
2018-02-18T03:56:22.311Z,84.09
2018-02-18T03:58:49.883Z,83.96
2018-02-18T04:01:17.409Z,84.01
2018-02-18T04:03:45.007Z,83.48
2018-02-18T04:06:12.566Z,83.37
2018-02-18T04:08:40.096Z,83.64
2018-02-18T04:11:07.668Z,84.02
2018-02-18T04:13:35.236Z,83.98
2018-02-18T04:16:02.799Z,84.14
2018-02-18T04:18:30.370Z,83.75
2018-02-18T04:20:58.028Z,83.65
2018-02-18T04:23:25.581Z,83.26
2018-02-18T04:25:53.134Z,83.25
2018-02-18T04:28:20.711Z,83.16
2018-02-18T04:30:48.236Z,83.08
2018-02-18T04:33:15.815Z,83.76
2018-02-18T04:35:43.372Z,83.28
2018-02-18T04:38:10.947Z,82.57
2018-02-18T04:40:38.494Z,82.70
2018-02-18T04:43:06.076Z,83.16
2018-02-18T04:45:33.679Z,82.89
2018-02-18T04:48:01.203Z,82.47
2018-02-18T04:50:28.832Z,82.14
2018-02-18T04:52:56.358Z,83.02
2018-02-18T04:55:23.906Z,82.85
2018-02-18T04:57:51.463Z,82.83
2018-02-18T05:00:19.072Z,82.99
2018-02-18T05:02:46.628Z,83.07
2018-02-18T05:05:14.274Z,82.89
2018-02-18T05:07:41.851Z,82.79
2018-02-18T05:10:09.418Z,82.99
2018-02-18T05:12:37.076Z,82.76
2018-02-18T05:15:04.732Z,82.70
2018-02-18T05:17:32.279Z,82.42
2018-02-18T05:19:59.851Z,82.73
2018-02-18T05:22:27.412Z,82.56
2018-02-18T05:24:54.938Z,82.60
2018-02-18T05:27:22.538Z,82.96
2018-02-18T05:29:50.058Z,83.01
2018-02-18T05:32:17.618Z,83.45
2018-02-18T05:34:45.144Z,83.71
2018-02-18T05:37:12.766Z,84.21
2018-02-18T05:39:40.325Z,83.81
2018-02-18T05:42:07.851Z,83.29
2018-02-18T05:44:35.455Z,83.17
2018-02-18T05:47:03.926Z,83.38
2018-02-18T05:49:31.589Z,83.44
2018-02-18T05:51:59.156Z,82.73
2018-02-18T05:54:26.738Z,82.36
2018-02-18T05:56:54.267Z,82.33
2018-02-18T05:59:21.823Z,81.91
2018-02-18T06:01:49.372Z,81.62
2018-02-18T06:04:17.047Z,82.12
2018-02-18T06:06:44.575Z,82.15
2018-02-18T06:09:12.131Z,83.02
2018-02-18T06:11:39.738Z,82.28
2018-02-18T06:14:07.280Z,82.03
2018-02-18T06:16:34.842Z,82.25
2018-02-18T06:19:02.387Z,82.49
2018-02-18T06:21:29.983Z,82.29
2018-02-18T06:23:57.506Z,82.28
2018-02-18T06:26:25.099Z,82.21
2018-02-18T06:28:52.647Z,82.18
2018-02-18T06:31:20.304Z,83.12
2018-02-18T06:33:47.858Z,82.62
2018-02-18T06:36:15.523Z,83.32
2018-02-18T06:38:43.053Z,83.02
2018-02-18T06:41:10.615Z,82.59
2018-02-18T06:43:38.211Z,82.52
2018-02-18T06:46:05.866Z,82.89
2018-02-18T06:48:34.187Z,82.37
2018-02-18T06:51:01.746Z,82.38
2018-02-18T06:53:29.317Z,82.37
2018-02-18T06:55:56.904Z,82.02
2018-02-18T06:58:24.422Z,82.18
2018-02-18T07:00:51.973Z,82.64
2018-02-18T07:03:19.589Z,84.18
2018-02-18T07:05:47.231Z,84.65
2018-02-18T07:08:14.832Z,83.83
2018-02-18T07:10:42.483Z,85.25
2018-02-18T07:13:10.012Z,84.91
2018-02-18T07:15:37.587Z,84.02
2018-02-18T07:18:05.158Z,84.16
2018-02-18T07:20:32.820Z,83.69
2018-02-18T07:23:00.390Z,83.00
2018-02-18T07:25:27.945Z,83.03
2018-02-18T07:27:55.528Z,83.13
2018-02-18T07:30:24.000Z,83.49
2018-02-18T07:32:51.552Z,83.68
2018-02-18T07:35:20.355Z,82.94
2018-02-18T07:40:26.307Z,82.82
2018-02-18T07:42:55.640Z,82.64
2018-02-18T07:45:23.575Z,82.66
2018-02-18T07:47:51.168Z,82.75
2018-02-18T07:50:19.413Z,83.37
2018-02-18T07:52:49.972Z,83.03
2018-02-18T07:55:20.920Z,82.59
2018-02-18T07:57:51.401Z,82.97
2018-02-18T08:00:21.174Z,84.22
2018-02-18T08:02:50.310Z,83.03
2018-02-18T08:05:18.790Z,82.66
2018-02-18T08:07:47.130Z,82.54
2018-02-18T08:10:14.689Z,82.88
2018-02-18T08:12:42.267Z,82.96
2018-02-18T08:15:09.858Z,82.64
2018-02-18T08:17:39.002Z,83.54
2018-02-18T08:20:07.608Z,83.33
2018-02-18T08:22:38.143Z,83.09
2018-02-18T08:25:08.600Z,83.96
2018-02-18T08:27:37.011Z,85.31
2018-02-18T08:30:06.066Z,83.95
2018-02-18T08:32:34.333Z,83.64
2018-02-18T08:35:03.812Z,82.97
2018-02-18T08:37:31.491Z,83.53
2018-02-18T08:39:59.015Z,83.53
2018-02-18T08:42:26.571Z,83.55
2018-02-18T08:44:54.120Z,83.65
2018-02-18T08:47:21.689Z,83.51
2018-02-18T08:49:49.224Z,83.95
2018-02-18T08:52:16.849Z,84.02
2018-02-18T08:54:44.405Z,84.21
2018-02-18T08:57:12.082Z,83.59
2018-02-18T08:59:39.758Z,84.25
2018-02-18T09:02:07.288Z,83.87
2018-02-18T09:04:34.856Z,83.81
2018-02-18T09:07:02.392Z,83.24
2018-02-18T09:09:30.593Z,83.06
2018-02-18T09:11:58.119Z,83.65
2018-02-18T09:14:26.264Z,83.97
2018-02-18T09:16:58.848Z,84.50
2018-02-18T09:19:26.627Z,84.07
2018-02-18T09:21:54.327Z,83.70
2018-02-18T09:24:22.606Z,84.71
2018-02-18T09:26:52.305Z,84.45
2018-02-18T09:29:22.975Z,84.82
2018-02-18T09:31:53.559Z,84.71
2018-02-18T09:34:22.367Z,84.46
2018-02-18T09:36:51.195Z,84.66
2018-02-18T09:39:22.526Z,83.89
2018-02-18T09:41:50.320Z,82.95
2018-02-18T09:44:18.126Z,83.37
2018-02-18T09:46:45.693Z,83.82
2018-02-18T09:49:13.274Z,83.05
2018-02-18T09:51:40.894Z,82.75
2018-02-18T09:54:08.507Z,83.02
2018-02-18T09:56:38.153Z,82.64
2018-02-18T09:59:05.715Z,84.66
2018-02-18T10:01:33.810Z,83.13
2018-02-18T10:04:01.366Z,83.79
2018-02-18T10:06:28.894Z,83.08
2018-02-18T10:08:56.447Z,84.62
2018-02-18T10:11:24.000Z,85.12
2018-02-18T10:13:51.575Z,83.34
2018-02-18T10:16:19.100Z,82.90
2018-02-18T10:18:46.631Z,83.42
2018-02-18T10:21:14.285Z,83.66
2018-02-18T10:23:41.860Z,83.45
2018-02-18T10:26:09.413Z,83.16
2018-02-18T10:28:37.168Z,82.61
2018-02-18T10:31:04.749Z,83.09
2018-02-18T10:33:32.295Z,82.76
2018-02-18T10:36:01.963Z,83.45
2018-02-18T10:38:30.195Z,82.86
2018-02-18T10:40:57.904Z,83.16
2018-02-18T10:43:25.697Z,82.72
2018-02-18T10:45:53.235Z,84.40
2018-02-18T10:48:20.783Z,83.18
2018-02-18T10:50:48.334Z,83.13
2018-02-18T10:53:20.032Z,81.67
2018-02-18T10:55:52.727Z,80.64
2018-02-18T10:58:24.495Z,80.06
2018-02-18T11:00:53.551Z,78.55
2018-02-18T11:03:21.146Z,78.56
2018-02-18T11:05:48.676Z,79.00
2018-02-18T11:08:17.225Z,78.73
2018-02-18T11:10:45.048Z,77.03
2018-02-18T11:13:12.751Z,76.99
2018-02-18T11:15:40.335Z,76.28
2018-02-18T11:18:08.428Z,75.17
2018-02-18T11:20:36.015Z,75.66
2018-02-18T11:23:03.559Z,75.87
2018-02-18T11:25:31.415Z,75.83
2018-02-18T11:27:59.020Z,75.71
2018-02-18T11:30:26.720Z,75.70
2018-02-18T11:32:58.797Z,75.07
2018-02-18T11:35:26.440Z,75.35
2018-02-18T11:37:54.533Z,74.96
2018-02-18T11:40:22.084Z,74.96
2018-02-18T11:42:50.862Z,75.27
2018-02-18T11:45:18.651Z,73.94
2018-02-18T11:47:46.250Z,74.65
2018-02-18T11:50:13.838Z,73.71
2018-02-18T11:52:41.367Z,73.79
2018-02-18T11:55:08.893Z,73.43
2018-02-18T11:57:36.446Z,73.58
2018-02-18T12:00:04.027Z,73.57
2018-02-18T12:02:31.553Z,74.16
2018-02-18T12:04:59.107Z,73.09
2018-02-18T12:07:26.631Z,73.31
2018-02-18T12:09:54.180Z,72.36
2018-02-18T12:12:21.713Z,71.93
2018-02-18T12:14:49.261Z,71.96
2018-02-18T12:17:16.791Z,72.22
2018-02-18T12:19:44.515Z,72.97
2018-02-18T12:22:15.718Z,72.39
2018-02-18T12:24:46.314Z,71.15
2018-02-18T12:27:16.797Z,70.41
2018-02-18T12:29:49.674Z,70.87
2018-02-18T12:32:19.358Z,71.69
2018-02-18T12:34:47.848Z,71.56
2018-02-18T12:37:18.237Z,70.73
2018-02-18T12:39:48.228Z,71.28
2018-02-18T12:42:15.954Z,71.67
2018-02-18T12:44:43.488Z,71.65
2018-02-18T12:47:11.040Z,70.01
2018-02-18T12:49:38.646Z,69.23
2018-02-18T12:52:06.197Z,69.09
2018-02-18T12:54:33.748Z,69.16
2018-02-18T12:57:01.315Z,68.95
2018-02-18T12:59:31.652Z,68.66
2018-02-18T13:02:00.421Z,68.83
2018-02-18T13:04:29.666Z,68.99
2018-02-18T13:06:57.377Z,69.60
2018-02-18T13:09:26.460Z,68.26
2018-02-18T13:11:54.990Z,68.01
2018-02-18T13:14:24.158Z,68.36
2018-02-18T13:16:52.433Z,68.36
2018-02-18T13:19:20.148Z,67.66
2018-02-18T13:21:50.167Z,68.28
2018-02-18T13:24:20.693Z,68.49
2018-02-18T13:26:48.801Z,69.27
2018-02-18T13:29:16.385Z,70.28
2018-02-18T13:31:44.982Z,69.62
2018-02-18T13:34:12.564Z,68.49
2018-02-18T13:36:40.143Z,68.63
2018-02-18T13:39:08.296Z,67.18
2018-02-18T13:41:36.205Z,67.48
2018-02-18T13:44:03.743Z,66.00
2018-02-18T13:46:33.539Z,65.00
2018-02-18T13:49:03.525Z,65.52
2018-02-18T13:51:32.403Z,65.92
2018-02-18T13:54:02.898Z,65.66
2018-02-18T13:56:33.650Z,65.50
2018-02-18T13:59:01.387Z,65.42
2018-02-18T14:01:31.410Z,65.99
2018-02-18T14:03:59.671Z,65.26
2018-02-18T14:06:27.743Z,65.65
2018-02-18T14:08:57.110Z,64.63
2018-02-18T14:11:25.719Z,66.02
2018-02-18T14:13:53.689Z,65.82
2018-02-18T14:16:24.622Z,65.38
2018-02-18T14:18:52.369Z,65.26
2018-02-18T14:21:23.702Z,65.01
2018-02-18T14:23:57.707Z,65.36
2018-02-18T14:26:28.293Z,66.28
2018-02-18T14:28:57.634Z,64.59
2018-02-18T14:31:28.685Z,65.27
2018-02-18T14:34:00.116Z,65.47
2018-02-18T14:36:28.547Z,65.15
2018-02-18T14:38:59.098Z,64.44
2018-02-18T14:41:38.623Z,65.66
2018-02-18T14:44:17.998Z,65.71
2018-02-18T14:46:57.628Z,65.50
2018-02-18T14:49:36.953Z,65.05
2018-02-18T14:52:16.417Z,64.95
2018-02-18T14:57:44.786Z,64.79
2018-02-18T15:00:12.375Z,65.02
2018-02-18T15:02:39.916Z,65.33
2018-02-18T15:05:07.468Z,64.42
2018-02-18T15:07:35.024Z,64.49
2018-02-18T15:10:02.571Z,63.14
2018-02-18T15:12:30.143Z,64.66
2018-02-18T15:14:58.446Z,64.68
2018-02-18T15:17:26.005Z,63.11
2018-02-18T15:19:53.576Z,62.81
2018-02-18T15:22:21.235Z,63.34
2018-02-18T15:24:48.793Z,62.65
2018-02-18T15:27:16.366Z,62.24
2018-02-18T15:29:43.894Z,63.17
2018-02-18T15:32:11.419Z,63.63
2018-02-18T15:34:39.210Z,63.54
2018-02-18T15:37:06.746Z,63.63
2018-02-18T15:39:34.300Z,64.87
2018-02-18T15:42:01.870Z,64.66
2018-02-18T15:44:29.672Z,64.74
2018-02-18T15:46:57.220Z,63.84
2018-02-18T15:49:24.811Z,64.16
2018-02-18T15:51:52.365Z,64.32
2018-02-18T15:54:19.916Z,64.34
2018-02-18T15:56:47.467Z,65.66
2018-02-18T15:59:15.031Z,64.71
2018-02-18T16:01:43.169Z,65.39
2018-02-18T16:04:10.699Z,65.18
2018-02-18T16:06:38.273Z,64.98
2018-02-18T16:09:05.879Z,65.54
2018-02-18T16:11:33.455Z,65.70
2018-02-18T16:14:00.980Z,65.56
2018-02-18T16:16:28.507Z,65.47
2018-02-18T16:18:56.063Z,65.99
2018-02-18T16:21:23.589Z,66.28
2018-02-18T16:23:51.138Z,66.60
2018-02-18T16:26:18.659Z,66.24
2018-02-18T16:28:46.245Z,67.21
2018-02-18T16:31:13.771Z,66.55
2018-02-18T16:33:41.322Z,67.70
2018-02-18T16:36:08.851Z,66.91
2018-02-18T16:38:36.431Z,67.80
2018-02-18T16:41:03.951Z,67.81
2018-02-18T16:43:31.483Z,67.50
2018-02-18T16:45:59.034Z,68.18
2018-02-18T16:48:26.811Z,68.42
2018-02-18T16:50:54.357Z,68.45
2018-02-18T16:53:21.891Z,68.70
2018-02-18T16:55:49.603Z,68.74
2018-02-18T16:58:17.377Z,69.31
2018-02-18T17:00:45.033Z,69.60
2018-02-18T17:03:12.899Z,69.38
2018-02-18T17:05:40.455Z,69.89
2018-02-18T17:08:08.307Z,70.30
2018-02-18T17:10:36.048Z,70.74
2018-02-18T17:13:03.615Z,71.33
2018-02-18T17:15:31.184Z,72.22
2018-02-18T17:17:58.767Z,72.63
2018-02-18T17:20:26.318Z,72.49
2018-02-18T17:22:53.847Z,73.03
2018-02-18T17:25:21.415Z,72.92
2018-02-18T17:27:49.208Z,73.31
2018-02-18T17:30:17.600Z,74.52
2018-02-18T17:32:45.138Z,73.89
2018-02-18T17:35:12.787Z,73.92
2018-02-18T17:37:40.355Z,74.60
2018-02-18T17:40:07.911Z,74.31
2018-02-18T17:42:35.610Z,75.18
2018-02-18T17:45:03.179Z,75.12
2018-02-18T17:47:30.912Z,76.21
2018-02-18T17:49:58.543Z,76.54
2018-02-18T17:52:26.321Z,77.05
2018-02-18T17:54:53.878Z,76.24
2018-02-18T17:57:21.876Z,77.08
2018-02-18T17:59:49.477Z,76.69
2018-02-18T18:02:18.224Z,77.10
2018-02-18T18:04:45.782Z,76.16
2018-02-18T18:07:13.752Z,75.83
2018-02-18T18:09:41.488Z,76.13
2018-02-18T18:12:09.059Z,76.40
2018-02-18T18:14:36.691Z,76.58
2018-02-18T18:17:04.815Z,76.93
2018-02-18T18:19:32.571Z,77.26
2018-02-18T18:22:00.188Z,77.20
2018-02-18T18:24:27.752Z,77.59
2018-02-18T18:26:55.302Z,78.37
2018-02-18T18:29:22.906Z,79.04
2018-02-18T18:31:50.460Z,79.65
2018-02-18T18:34:18.036Z,79.12
2018-02-18T18:36:45.593Z,78.62
2018-02-18T18:39:13.209Z,78.65
2018-02-18T18:41:40.743Z,78.17
2018-02-18T18:44:08.296Z,79.05
2018-02-18T18:46:38.708Z,80.74
2018-02-18T18:49:06.368Z,80.21
2018-02-18T18:51:33.899Z,79.23
2018-02-18T18:54:01.456Z,79.33
2018-02-18T18:56:29.035Z,80.10
2018-02-18T18:59:01.669Z,80.36
2018-02-18T19:01:29.463Z,79.89
2018-02-18T19:03:57.284Z,79.55
2018-02-18T19:06:24.923Z,79.66
2018-02-18T19:08:54.221Z,80.20
2018-02-18T19:11:22.208Z,80.47
2018-02-18T19:13:52.447Z,80.13
2018-02-18T19:16:22.277Z,80.34
2018-02-18T19:18:52.300Z,80.25
2018-02-18T19:21:22.239Z,80.28
2018-02-18T19:23:51.220Z,80.66
2018-02-18T19:26:19.010Z,80.94
2018-02-18T19:28:46.584Z,80.26
2018-02-18T19:31:14.132Z,80.64
2018-02-18T19:33:41.719Z,81.27
2018-02-18T19:36:09.248Z,80.96
2018-02-18T19:38:37.319Z,80.61
2018-02-18T19:41:04.890Z,80.34
2018-02-18T19:43:32.595Z,80.47
2018-02-18T19:46:00.147Z,80.74
2018-02-18T19:48:27.683Z,80.67
2018-02-18T19:50:55.404Z,81.27
2018-02-18T19:53:23.203Z,81.36
2018-02-18T19:55:51.591Z,80.93
2018-02-18T19:58:19.351Z,80.97
2018-02-18T20:00:46.936Z,80.79
2018-02-18T20:03:14.515Z,80.89
2018-02-18T20:05:42.440Z,80.44
2018-02-18T20:08:10.198Z,80.73
2018-02-18T20:10:37.805Z,80.70
2018-02-18T20:13:07.050Z,80.49
2018-02-18T20:15:36.670Z,80.08
2018-02-18T20:18:04.474Z,80.29
2018-02-18T20:20:31.998Z,80.67
2018-02-18T20:22:59.942Z,80.01
2018-02-18T20:25:31.757Z,79.57
2018-02-18T20:28:18.346Z,79.34
2018-02-18T20:30:46.376Z,79.14
2018-02-18T20:33:16.274Z,80.23
2018-02-18T20:35:43.859Z,80.62
2018-02-18T20:38:13.868Z,80.13
2018-02-18T20:40:42.444Z,80.48
2018-02-18T20:43:11.227Z,81.30
2018-02-18T20:45:41.508Z,80.21
2018-02-18T20:48:13.295Z,80.33
2018-02-18T20:50:43.549Z,80.63
2018-02-18T20:53:11.982Z,80.65
2018-02-18T20:55:39.590Z,80.80
2018-02-18T20:58:07.112Z,80.57
2018-02-18T21:00:34.649Z,81.05
2018-02-18T21:03:02.225Z,82.83
2018-02-18T21:05:29.769Z,81.28
2018-02-18T21:07:59.600Z,81.83
2018-02-18T21:10:27.158Z,80.40
2018-02-18T21:12:55.976Z,79.98
2018-02-18T21:15:23.905Z,81.04
2018-02-18T21:17:51.487Z,80.83
2018-02-18T21:20:19.006Z,80.18
2018-02-18T21:22:46.544Z,80.10
2018-02-18T21:25:14.118Z,80.84
2018-02-18T21:27:41.640Z,82.03
2018-02-18T21:30:09.236Z,81.86
2018-02-18T21:32:36.774Z,81.33
2018-02-18T21:35:04.367Z,80.82
2018-02-18T21:37:31.903Z,81.04
2018-02-18T21:39:59.595Z,82.47
2018-02-18T21:42:27.155Z,82.13
2018-02-18T21:44:54.699Z,81.23
2018-02-18T21:47:22.435Z,80.70
2018-02-18T21:49:50.011Z,81.34
2018-02-18T21:52:17.544Z,81.26
2018-02-18T21:54:45.095Z,80.98
2018-02-18T21:57:12.651Z,80.95
2018-02-18T21:59:40.748Z,82.01
2018-02-18T22:02:09.402Z,81.07
2018-02-18T22:04:39.214Z,80.94
2018-02-18T22:07:06.973Z,82.45
2018-02-18T22:09:36.241Z,82.21
2018-02-18T22:12:04.265Z,82.95
2018-02-18T22:14:33.623Z,82.37
2018-02-18T22:17:02.804Z,82.29
2018-02-18T22:19:32.366Z,81.81
2018-02-18T22:22:01.307Z,81.82
2018-02-18T22:24:29.982Z,83.08
2018-02-18T22:26:58.176Z,82.72
2018-02-18T22:29:26.751Z,81.58
2018-02-18T22:31:55.021Z,82.42
2018-02-18T22:34:24.119Z,81.77
2018-02-18T22:36:52.203Z,81.71
2018-02-18T22:39:20.248Z,81.61
2018-02-18T22:41:49.611Z,81.60
2018-02-18T22:44:18.656Z,81.52
2018-02-18T22:46:47.318Z,82.18
2018-02-18T22:49:16.191Z,81.38
2018-02-18T22:51:45.387Z,81.25
2018-02-18T22:54:13.571Z,81.68
2018-02-18T22:56:41.692Z,81.57
2018-02-18T22:59:09.951Z,82.59
2018-02-18T23:01:41.207Z,82.78
2018-02-18T23:04:11.233Z,82.83
2018-02-18T23:06:38.795Z,81.89
2018-02-18T23:09:06.973Z,81.76
2018-02-18T23:11:34.935Z,81.67
2018-02-18T23:14:04.663Z,82.15
2018-02-18T23:16:32.786Z,81.78
2018-02-18T23:19:03.093Z,82.36
2018-02-18T23:21:31.408Z,81.76
2018-02-18T23:24:01.215Z,81.27
2018-02-18T23:26:29.050Z,81.13
2018-02-18T23:28:57.440Z,81.40
2018-02-18T23:31:27.276Z,81.28
2018-02-18T23:33:56.724Z,80.89
2018-02-18T23:36:26.494Z,80.81
2018-02-18T23:38:54.767Z,80.69
2018-02-18T23:41:22.292Z,80.99
2018-02-18T23:43:50.662Z,81.08
2018-02-18T23:46:18.295Z,82.17
2018-02-18T23:48:49.251Z,81.33
2018-02-18T23:51:16.900Z,81.22
2018-02-18T23:53:45.066Z,81.81
2018-02-18T23:56:12.627Z,80.60
2018-02-18T23:58:40.160Z,80.85
